createdAt,value
2018-07-19T00:00:12.561Z,99.90
2018-07-19T00:02:40.888Z,99.90
2018-07-19T00:05:09.223Z,99.90
2018-07-19T00:07:37.523Z,99.90
2018-07-19T00:10:12.418Z,99.90
2018-07-19T00:12:40.781Z,99.90
2018-07-19T00:15:09.090Z,99.90
2018-07-19T00:17:37.425Z,99.90
2018-07-19T00:20:06.069Z,99.90
2018-07-19T00:22:34.349Z,99.90
2018-07-19T00:27:30.713Z,99.90
2018-07-19T00:29:59.004Z,99.90
2018-07-19T00:32:27.295Z,99.90
2018-07-19T00:34:55.615Z,99.90
2018-07-19T00:37:23.917Z,99.90
2018-07-19T00:39:52.353Z,99.90
2018-07-19T00:42:20.643Z,99.90
2018-07-19T00:44:48.931Z,99.90
2018-07-19T00:49:45.344Z,99.90
2018-07-19T00:52:13.771Z,99.90
2018-07-19T00:54:42.109Z,99.90
2018-07-19T00:57:10.510Z,99.90
2018-07-19T00:59:38.920Z,99.90
2018-07-19T01:02:07.775Z,99.90
2018-07-19T01:04:36.152Z,99.90
2018-07-19T01:07:04.505Z,99.90
2018-07-19T01:09:32.862Z,99.90
2018-07-19T01:12:01.251Z,99.90
2018-07-19T01:14:29.661Z,99.90
2018-07-19T01:16:58.050Z,99.90
2018-07-19T01:19:26.393Z,99.90
2018-07-19T01:21:54.801Z,99.90
2018-07-19T01:24:23.200Z,99.90
2018-07-19T01:26:51.501Z,99.90
2018-07-19T01:29:19.907Z,99.90
2018-07-19T01:31:48.318Z,99.90
2018-07-19T01:34:16.740Z,99.90
2018-07-19T01:36:45.081Z,99.90
2018-07-19T01:39:13.405Z,99.90
2018-07-19T01:42:25.753Z,99.90
2018-07-19T01:44:54.127Z,99.90
2018-07-19T01:47:22.543Z,99.90
2018-07-19T01:49:50.855Z,99.90
2018-07-19T01:52:19.306Z,99.90
2018-07-19T01:54:47.735Z,99.90
2018-07-19T01:57:17.231Z,99.90
2018-07-19T01:59:46.189Z,99.90
2018-07-19T02:02:14.769Z,99.90
2018-07-19T02:04:43.223Z,99.90
2018-07-19T02:07:11.606Z,99.90
2018-07-19T02:09:40.228Z,99.90
2018-07-19T02:12:08.627Z,99.90
2018-07-19T02:14:37.010Z,99.90
2018-07-19T02:17:05.836Z,99.90
2018-07-19T02:19:34.176Z,99.90
2018-07-19T02:22:02.760Z,99.90
2018-07-19T02:24:31.114Z,99.90
2018-07-19T02:26:59.527Z,99.90
2018-07-19T02:29:27.865Z,99.90
2018-07-19T02:31:56.205Z,99.90
2018-07-19T02:34:24.646Z,99.90
2018-07-19T02:36:53.057Z,99.90
2018-07-19T02:39:21.394Z,99.90
2018-07-19T02:41:49.739Z,99.90
2018-07-19T02:44:18.062Z,99.90
2018-07-19T02:46:46.462Z,99.90
2018-07-19T02:49:14.823Z,99.90
2018-07-19T02:51:43.729Z,99.90
2018-07-19T02:54:12.376Z,99.90
2018-07-19T02:56:40.782Z,99.90
2018-07-19T02:59:09.142Z,99.90
2018-07-19T03:01:37.474Z,99.90
2018-07-19T03:04:05.859Z,99.90
2018-07-19T03:06:34.291Z,99.90
2018-07-19T03:09:02.649Z,99.90
2018-07-19T03:11:30.955Z,99.90
2018-07-19T03:18:55.422Z,99.90
2018-07-19T03:21:23.768Z,99.90
2018-07-19T03:24:07.938Z,99.90
2018-07-19T03:26:36.334Z,99.90
2018-07-19T03:29:04.681Z,99.90
2018-07-19T03:31:33.063Z,99.90
2018-07-19T03:34:01.382Z,99.90
2018-07-19T03:36:29.714Z,99.90
2018-07-19T03:38:58.080Z,99.90
2018-07-19T03:41:26.496Z,99.90
2018-07-19T03:43:54.887Z,99.90
2018-07-19T03:46:23.386Z,99.90
2018-07-19T03:51:19.835Z,99.90
2018-07-19T03:53:48.160Z,99.90
2018-07-19T03:56:16.563Z,99.90
2018-07-19T03:58:44.882Z,99.90
2018-07-19T04:01:13.263Z,99.90
2018-07-19T04:03:41.633Z,99.90
2018-07-19T04:06:10.029Z,99.90
2018-07-19T04:08:38.534Z,99.90
2018-07-19T04:11:06.890Z,99.90
2018-07-19T04:13:35.276Z,99.90
2018-07-19T04:16:03.647Z,99.90
2018-07-19T04:18:32.038Z,99.90
2018-07-19T04:21:00.390Z,99.90
2018-07-19T04:24:31.698Z,99.90
2018-07-19T04:27:00.168Z,99.90
2018-07-19T04:29:28.532Z,99.90
2018-07-19T04:31:56.904Z,99.90
2018-07-19T04:34:25.259Z,99.90
2018-07-19T04:36:53.760Z,99.90
2018-07-19T04:39:22.429Z,99.90
2018-07-19T04:41:50.806Z,99.90
2018-07-19T04:44:19.154Z,99.90
2018-07-19T04:46:47.711Z,99.90
2018-07-19T04:49:16.093Z,99.90
2018-07-19T04:51:44.501Z,99.90
2018-07-19T04:54:12.847Z,99.90
2018-07-19T04:56:41.498Z,99.90
2018-07-19T04:59:09.869Z,99.90
2018-07-19T05:01:38.386Z,99.90
2018-07-19T05:04:06.987Z,99.90
2018-07-19T05:06:35.628Z,99.90
2018-07-19T05:09:06.170Z,99.90
2018-07-19T05:11:34.600Z,99.90
2018-07-19T05:14:02.993Z,99.90
2018-07-19T05:16:31.340Z,99.90
2018-07-19T05:18:59.768Z,99.90
2018-07-19T05:21:28.117Z,99.90
2018-07-19T05:23:56.591Z,99.90
2018-07-19T05:26:25.201Z,99.90
2018-07-19T05:28:53.711Z,99.90
2018-07-19T05:31:22.058Z,99.90
2018-07-19T05:33:50.507Z,99.90
2018-07-19T05:36:18.892Z,99.90
2018-07-19T05:38:47.310Z,99.90
2018-07-19T05:41:15.664Z,99.90
2018-07-19T05:43:44.121Z,99.90
2018-07-19T05:46:12.483Z,99.90
2018-07-19T05:48:41.038Z,99.90
2018-07-19T05:51:10.089Z,99.90
2018-07-19T05:53:38.528Z,99.90
2018-07-19T05:56:07.078Z,99.90
2018-07-19T05:58:35.483Z,99.90
2018-07-19T06:01:03.852Z,98.30
2018-07-19T06:03:32.253Z,99.20
2018-07-19T06:06:00.578Z,97.90
2018-07-19T06:08:28.892Z,98.50
2018-07-19T06:10:57.358Z,98.30
2018-07-19T06:13:25.717Z,96.00
2018-07-19T06:15:54.053Z,94.80
2018-07-19T06:18:22.405Z,92.40
2018-07-19T06:20:50.733Z,92.50
2018-07-19T06:25:47.353Z,90.40
2018-07-19T06:28:15.699Z,88.50
2018-07-19T06:30:44.023Z,87.20
2018-07-19T06:33:12.353Z,84.10
2018-07-19T06:35:40.732Z,85.00
2018-07-19T06:38:09.090Z,76.60
2018-07-19T06:40:37.405Z,77.40
2018-07-19T06:43:06.140Z,70.00
2018-07-19T06:45:34.492Z,67.40
2018-07-19T06:48:02.841Z,64.60
2018-07-19T06:53:05.993Z,61.30
2018-07-19T06:55:34.402Z,60.10
2018-07-19T06:58:02.764Z,56.30
2018-07-19T07:00:31.086Z,59.70
2018-07-19T07:02:59.401Z,59.60
2018-07-19T07:05:27.694Z,56.00
2018-07-19T07:07:55.997Z,54.30
2018-07-19T07:10:24.425Z,52.10
2018-07-19T07:12:52.845Z,51.90
2018-07-19T07:15:21.240Z,55.40
2018-07-19T07:17:49.540Z,51.40
2018-07-19T07:20:17.869Z,51.70
2018-07-19T07:22:46.181Z,50.60
2018-07-19T07:25:14.586Z,49.10
2018-07-19T07:27:42.865Z,47.60
2018-07-19T07:30:11.223Z,48.40
2018-07-19T07:32:39.555Z,50.40
2018-07-19T07:35:08.307Z,50.80
2018-07-19T07:37:36.632Z,46.30
2018-07-19T07:40:05.727Z,47.90
2018-07-19T07:42:34.073Z,49.70
2018-07-19T07:45:02.441Z,48.90
2018-07-19T07:47:30.774Z,50.40
2018-07-19T07:49:59.098Z,48.80
2018-07-19T07:52:27.419Z,49.30
2018-07-19T07:54:55.794Z,48.00
2018-07-19T07:57:24.066Z,47.60
2018-07-19T07:59:52.383Z,47.30
2018-07-19T08:02:20.687Z,45.40
2018-07-19T08:04:48.998Z,48.20
2018-07-19T08:07:17.319Z,46.50
2018-07-19T08:09:45.697Z,46.20
2018-07-19T08:12:13.973Z,45.60
2018-07-19T08:14:42.311Z,44.30
2018-07-19T08:17:10.645Z,45.40
2018-07-19T08:19:38.934Z,45.40
2018-07-19T08:22:07.263Z,46.10
2018-07-19T08:24:35.576Z,42.30
2018-07-19T08:27:03.900Z,43.70
2018-07-19T08:29:32.185Z,43.50
2018-07-19T08:32:00.500Z,46.30
2018-07-19T08:34:28.806Z,45.90
2018-07-19T08:36:57.094Z,46.40
2018-07-19T08:39:25.404Z,43.90
2018-07-19T08:41:53.686Z,44.90
2018-07-19T08:44:21.997Z,45.70
2018-07-19T08:49:18.317Z,44.30
2018-07-19T08:51:46.603Z,42.50
2018-07-19T08:54:14.898Z,43.20
2018-07-19T08:56:43.237Z,44.10
2018-07-19T08:59:11.473Z,45.50
2018-07-19T09:01:39.918Z,44.30
2018-07-19T09:04:08.250Z,43.40
2018-07-19T09:06:36.565Z,41.60
2018-07-19T09:09:07.374Z,42.40
2018-07-19T09:11:35.780Z,43.20
2018-07-19T09:14:04.280Z,43.30
2018-07-19T09:16:32.594Z,44.20
2018-07-19T09:19:00.877Z,43.60
2018-07-19T09:21:29.510Z,43.00
2018-07-19T09:23:57.825Z,46.10
2018-07-19T09:26:26.163Z,48.20
2018-07-19T09:28:54.477Z,50.90
2018-07-19T09:31:22.846Z,51.80
2018-07-19T09:33:51.142Z,51.50
2018-07-19T09:36:19.454Z,53.20
2018-07-19T09:38:47.739Z,54.30
2018-07-19T09:41:16.026Z,54.40
2018-07-19T09:43:44.344Z,53.20
2018-07-19T09:47:15.961Z,53.80
2018-07-19T09:49:45.255Z,55.80
2018-07-19T09:52:13.560Z,57.00
2018-07-19T09:54:55.715Z,56.40
2018-07-19T09:57:24.149Z,58.80
2018-07-19T09:59:52.552Z,57.20
2018-07-19T10:02:20.854Z,58.10
2018-07-19T10:04:49.145Z,57.50
2018-07-19T10:07:17.481Z,58.60
2018-07-19T10:09:45.749Z,59.50
2018-07-19T10:12:14.051Z,57.80
2018-07-19T10:14:42.410Z,57.20
2018-07-19T10:17:10.835Z,58.80
2018-07-19T10:19:39.247Z,58.30
2018-07-19T10:22:07.739Z,56.60
2018-07-19T10:24:36.014Z,58.70
2018-07-19T10:27:04.350Z,57.70
2018-07-19T10:29:32.678Z,58.90
2018-07-19T10:32:01.013Z,58.70
2018-07-19T10:34:29.373Z,59.40
2018-07-19T10:36:57.622Z,59.50
2018-07-19T10:39:25.928Z,58.50
2018-07-19T10:41:54.206Z,58.00
2018-07-19T10:44:22.528Z,57.60
2018-07-19T10:46:50.813Z,58.20
2018-07-19T10:49:19.144Z,58.50
2018-07-19T10:51:47.452Z,59.50
2018-07-19T10:54:15.811Z,59.10
2018-07-19T10:56:44.122Z,58.40
2018-07-19T10:59:12.418Z,59.80
2018-07-19T11:01:40.712Z,57.60
2018-07-19T11:04:09.009Z,57.60
2018-07-19T11:06:37.366Z,59.30
2018-07-19T11:09:07.764Z,58.10
2018-07-19T11:11:36.052Z,58.80
2018-07-19T11:14:04.371Z,59.70
2018-07-19T11:19:00.799Z,57.20
2018-07-19T11:21:29.075Z,58.10
2018-07-19T11:23:57.368Z,58.50
2018-07-19T11:26:25.667Z,57.80
2018-07-19T11:28:53.969Z,58.70
2018-07-19T11:31:22.419Z,59.10
2018-07-19T11:33:50.863Z,59.30
2018-07-19T11:36:19.152Z,58.50
2018-07-19T11:38:47.461Z,59.30
2018-07-19T11:41:15.778Z,58.80
2018-07-19T11:43:44.133Z,59.70
2018-07-19T11:46:12.410Z,57.80
2018-07-19T11:48:40.690Z,57.40
2018-07-19T11:51:09.001Z,58.00
2018-07-19T11:53:37.285Z,56.30
2018-07-19T11:56:05.617Z,57.70
2018-07-19T11:58:33.907Z,57.60
2018-07-19T12:01:02.203Z,57.30
2018-07-19T12:03:30.475Z,57.80
2018-07-19T12:05:58.792Z,59.90
2018-07-19T12:08:27.264Z,58.50
2018-07-19T12:10:55.547Z,57.70
2018-07-19T12:13:23.916Z,58.30
2018-07-19T12:15:52.196Z,58.60
2018-07-19T12:18:20.540Z,58.00
2018-07-19T12:20:48.845Z,58.70
2018-07-19T12:23:17.132Z,57.60
2018-07-19T12:25:45.425Z,57.30
2018-07-19T12:28:13.778Z,58.60
2018-07-19T12:30:42.080Z,56.50
2018-07-19T12:33:10.408Z,56.40
2018-07-19T12:35:38.698Z,57.90
2018-07-19T12:38:07.023Z,57.60
2018-07-19T12:40:35.295Z,57.70
2018-07-19T12:43:03.633Z,55.40
2018-07-19T12:45:31.914Z,56.30
2018-07-19T12:48:00.200Z,57.50
2018-07-19T12:50:28.499Z,57.70
2018-07-19T12:52:56.801Z,58.00
2018-07-19T12:55:25.089Z,58.10
2018-07-19T12:57:53.421Z,56.80
2018-07-19T13:00:21.780Z,57.00
2018-07-19T13:02:50.044Z,56.60
2018-07-19T13:05:18.512Z,55.80
2018-07-19T13:07:46.676Z,54.90
2018-07-19T13:10:14.975Z,54.60
2018-07-19T13:12:43.323Z,54.50
2018-07-19T13:15:11.663Z,55.10
2018-07-19T13:17:39.988Z,54.40
2018-07-19T13:22:36.375Z,55.90
2018-07-19T13:25:04.787Z,56.50
2018-07-19T13:27:33.234Z,56.70
2018-07-19T13:30:01.518Z,55.90
2018-07-19T13:32:29.832Z,55.30
2018-07-19T13:34:58.109Z,55.30
2018-07-19T13:37:26.401Z,55.30
2018-07-19T13:39:54.663Z,56.10
2018-07-19T13:42:22.956Z,55.40
2018-07-19T13:44:51.289Z,55.10
2018-07-19T13:47:19.564Z,54.80
2018-07-19T13:49:47.849Z,54.10
2018-07-19T13:52:16.368Z,55.70
2018-07-19T13:54:49.896Z,54.50
2018-07-19T13:57:18.188Z,55.20
2018-07-19T13:59:46.484Z,53.90
2018-07-19T14:02:14.820Z,55.10
2018-07-19T14:04:43.101Z,55.30
2018-07-19T14:07:11.443Z,55.30
2018-07-19T14:09:39.758Z,56.70
2018-07-19T14:12:08.068Z,56.60
2018-07-19T14:14:36.363Z,55.80
2018-07-19T14:17:04.645Z,55.20
2018-07-19T14:19:32.938Z,54.80
2018-07-19T14:22:01.229Z,55.60
2018-07-19T14:24:29.528Z,54.80
2018-07-19T14:26:57.862Z,55.60
2018-07-19T14:29:26.143Z,55.10
2018-07-19T14:31:54.401Z,53.70
2018-07-19T14:34:22.700Z,54.20
2018-07-19T14:36:50.970Z,53.00
2018-07-19T14:39:19.256Z,54.20
2018-07-19T14:41:47.529Z,53.50
2018-07-19T14:44:15.802Z,53.30
2018-07-19T14:46:44.075Z,54.60
2018-07-19T14:49:12.375Z,54.60
2018-07-19T14:51:40.660Z,54.90
2018-07-19T14:54:08.949Z,55.00
2018-07-19T14:56:37.244Z,55.60
2018-07-19T14:59:05.645Z,55.10
2018-07-19T15:01:33.958Z,54.60
2018-07-19T15:04:02.257Z,54.20
2018-07-19T15:06:30.531Z,55.10
2018-07-19T15:08:58.825Z,55.30
2018-07-19T15:11:27.265Z,54.20
2018-07-19T15:13:55.559Z,54.00
2018-07-19T15:16:23.868Z,54.00
2018-07-19T15:18:52.166Z,54.00
2018-07-19T15:21:20.566Z,53.60
2018-07-19T15:23:48.854Z,54.10
2018-07-19T15:26:17.138Z,54.00
2018-07-19T15:28:45.448Z,53.40
2018-07-19T15:31:13.715Z,55.20
2018-07-19T15:33:42.035Z,53.40
2018-07-19T15:36:10.328Z,53.10
2018-07-19T15:38:38.592Z,54.10
2018-07-19T15:41:06.897Z,53.60
2018-07-19T15:43:35.206Z,53.60
2018-07-19T15:46:03.508Z,53.80
2018-07-19T15:48:31.765Z,54.70
2018-07-19T15:51:00.063Z,55.00
2018-07-19T15:53:28.370Z,54.30
2018-07-19T15:55:56.679Z,53.80
2018-07-19T15:58:24.959Z,53.30
2018-07-19T16:00:53.291Z,53.70
2018-07-19T16:03:21.725Z,53.70
2018-07-19T16:05:50.182Z,54.00
2018-07-19T16:08:18.463Z,53.70
2018-07-19T16:10:46.786Z,53.00
2018-07-19T16:13:15.067Z,53.00
2018-07-19T16:15:43.386Z,53.20
2018-07-19T16:18:11.702Z,52.50
2018-07-19T16:20:40.052Z,53.20
2018-07-19T16:23:08.297Z,53.70
2018-07-19T16:25:36.665Z,53.10
2018-07-19T16:28:05.091Z,52.70
2018-07-19T16:30:33.463Z,53.20
2018-07-19T16:33:01.816Z,53.20
2018-07-19T16:35:30.133Z,53.20
2018-07-19T16:37:58.450Z,53.50
2018-07-19T16:40:26.766Z,53.40
2018-07-19T16:42:55.307Z,53.10
2018-07-19T16:45:23.601Z,54.00
2018-07-19T16:47:52.168Z,53.60
2018-07-19T16:50:20.499Z,52.90
2018-07-19T16:52:48.812Z,53.50
2018-07-19T16:55:17.235Z,52.90
2018-07-19T16:57:45.582Z,53.50
2018-07-19T17:00:13.875Z,54.80
2018-07-19T17:02:42.290Z,54.40
2018-07-19T17:05:10.565Z,54.10
2018-07-19T17:07:38.918Z,53.50
2018-07-19T17:10:07.578Z,54.20
2018-07-19T17:12:36.153Z,55.20
2018-07-19T17:15:05.073Z,53.80
2018-07-19T17:17:33.439Z,53.90
2018-07-19T17:20:01.814Z,54.00
2018-07-19T17:22:30.175Z,53.90
2018-07-19T17:24:58.506Z,54.30
2018-07-19T17:27:26.872Z,54.90
2018-07-19T17:29:55.253Z,54.00
2018-07-19T17:32:23.649Z,54.10
2018-07-19T17:34:51.995Z,54.50
2018-07-19T17:37:20.308Z,54.30
2018-07-19T17:39:48.602Z,54.20
2018-07-19T17:42:17.048Z,54.20
2018-07-19T17:44:45.418Z,54.00
2018-07-19T17:47:13.762Z,54.50
2018-07-19T17:49:42.269Z,54.30
2018-07-19T17:52:10.681Z,54.80
2018-07-19T17:54:38.964Z,54.30
2018-07-19T17:57:07.505Z,54.50
2018-07-19T17:59:35.811Z,54.40
2018-07-19T18:02:04.126Z,54.30
2018-07-19T18:04:32.416Z,54.30
2018-07-19T18:07:00.721Z,54.70
2018-07-19T18:09:29.152Z,55.10
2018-07-19T18:11:57.498Z,55.70
2018-07-19T18:14:25.814Z,56.50
2018-07-19T18:16:54.221Z,57.00
2018-07-19T18:19:22.819Z,57.10
2018-07-19T18:21:51.131Z,57.50
2018-07-19T18:24:19.406Z,57.60
2018-07-19T18:26:47.747Z,57.90
2018-07-19T18:29:16.050Z,57.90
2018-07-19T18:31:44.326Z,58.00
2018-07-19T18:34:12.621Z,58.30
2018-07-19T18:36:40.936Z,58.60
2018-07-19T18:39:11.119Z,58.60
2018-07-19T18:41:39.845Z,58.80
2018-07-19T18:44:08.368Z,59.00
2018-07-19T18:49:04.957Z,59.30
2018-07-19T18:51:33.429Z,59.40
2018-07-19T18:54:01.748Z,59.70
2018-07-19T18:56:30.689Z,59.80
2018-07-19T18:58:59.071Z,60.00
2018-07-19T19:01:27.451Z,60.20
2018-07-19T19:03:55.773Z,60.30
2018-07-19T19:06:24.232Z,60.50
2018-07-19T19:08:52.501Z,60.40
2018-07-19T19:11:20.859Z,61.90
2018-07-19T19:13:49.189Z,61.10
2018-07-19T19:16:17.585Z,61.10
2018-07-19T19:18:46.100Z,61.40
2018-07-19T19:21:14.480Z,61.60
2018-07-19T19:23:42.867Z,62.00
2018-07-19T19:26:11.251Z,61.40
2018-07-19T19:28:39.591Z,62.10
2018-07-19T19:31:08.036Z,63.40
2018-07-19T19:33:36.386Z,62.60
2018-07-19T19:36:04.707Z,63.10
2018-07-19T19:38:33.387Z,63.10
2018-07-19T19:41:01.720Z,63.50
2018-07-19T19:43:30.228Z,64.20
2018-07-19T19:45:58.606Z,64.40
2018-07-19T19:48:26.975Z,64.50
2018-07-19T19:50:55.372Z,65.00
2018-07-19T19:53:23.883Z,64.70
2018-07-19T19:55:52.248Z,65.20
2018-07-19T19:58:20.631Z,65.60
2018-07-19T20:00:48.954Z,65.60
2018-07-19T20:03:17.349Z,66.20
2018-07-19T20:05:45.717Z,66.20
2018-07-19T20:08:14.102Z,68.60
2018-07-19T20:10:42.449Z,70.50
2018-07-19T20:13:10.788Z,71.30
2018-07-19T20:15:39.230Z,72.70
2018-07-19T20:18:07.654Z,73.50
2018-07-19T20:20:35.953Z,75.90
2018-07-19T20:23:04.304Z,75.90
2018-07-19T20:25:32.656Z,77.70
2018-07-19T20:28:01.445Z,77.50
2018-07-19T20:30:29.758Z,78.70
2018-07-19T20:32:58.195Z,79.90
2018-07-19T20:37:54.620Z,81.20
2018-07-19T20:40:23.093Z,81.90
2018-07-19T20:42:51.519Z,82.30
2018-07-19T20:45:19.923Z,83.10
2018-07-19T20:47:48.270Z,82.90
2018-07-19T20:50:16.657Z,83.90
2018-07-19T20:52:45.012Z,84.80
2018-07-19T20:55:13.419Z,85.40
2018-07-19T20:57:41.917Z,86.10
2018-07-19T21:00:10.284Z,87.20
2018-07-19T21:02:38.622Z,88.50
2018-07-19T21:05:07.005Z,89.30
2018-07-19T21:07:35.410Z,90.00
2018-07-19T21:10:03.956Z,90.40
2018-07-19T21:12:32.351Z,90.80
2018-07-19T21:15:00.761Z,91.40
2018-07-19T21:17:29.345Z,91.50
2018-07-19T21:19:58.283Z,92.00
2018-07-19T21:22:26.829Z,92.20
2018-07-19T21:24:55.275Z,93.30
2018-07-19T21:27:23.634Z,93.70
2018-07-19T21:29:52.398Z,94.40
2018-07-19T21:32:20.799Z,95.30
2018-07-19T21:34:49.148Z,95.90
2018-07-19T21:37:17.613Z,96.30
2018-07-19T21:39:46.035Z,96.70
2018-07-19T21:42:14.374Z,97.30
2018-07-19T21:44:43.810Z,97.60
2018-07-19T21:47:12.176Z,98.00
2018-07-19T21:49:40.600Z,98.50
2018-07-19T21:52:08.984Z,99.40
2018-07-19T21:54:37.507Z,99.60
2018-07-19T21:57:06.102Z,99.90
2018-07-19T21:59:35.310Z,99.90
2018-07-19T22:02:03.731Z,99.90
2018-07-19T22:04:32.095Z,99.90
2018-07-19T22:07:00.507Z,99.90
2018-07-19T22:09:29.019Z,99.90
2018-07-19T22:11:57.403Z,99.90
2018-07-19T22:14:25.876Z,99.90
2018-07-19T22:16:54.327Z,99.90
2018-07-19T22:19:22.773Z,99.90
2018-07-19T22:21:51.138Z,99.90
2018-07-19T22:24:19.572Z,99.90
2018-07-19T22:26:47.919Z,99.90
2018-07-19T22:29:16.302Z,99.90
2018-07-19T22:31:44.683Z,99.90
2018-07-19T22:34:13.143Z,99.90
2018-07-19T22:36:41.515Z,99.90
2018-07-19T22:39:11.280Z,99.90
2018-07-19T22:41:39.801Z,99.90
2018-07-19T22:44:08.169Z,99.90
2018-07-19T22:49:05.370Z,99.90
2018-07-19T22:51:33.743Z,99.90
2018-07-19T22:54:02.163Z,99.90
2018-07-19T22:56:30.547Z,99.90
2018-07-19T22:58:58.971Z,99.90
2018-07-19T23:03:55.555Z,99.90
2018-07-19T23:06:23.921Z,99.90
2018-07-19T23:08:52.281Z,99.90
2018-07-19T23:11:20.746Z,99.90
2018-07-19T23:13:49.193Z,99.90
2018-07-19T23:16:17.855Z,99.90
2018-07-19T23:18:46.335Z,99.90
2018-07-19T23:21:14.736Z,99.90
2018-07-19T23:23:43.096Z,99.90
2018-07-19T23:26:11.507Z,99.90
2018-07-19T23:28:39.949Z,99.90
2018-07-19T23:31:08.431Z,99.90
2018-07-19T23:33:36.794Z,99.90
2018-07-19T23:36:07.938Z,99.90
2018-07-19T23:38:41.813Z,99.90
2018-07-19T23:41:14.952Z,99.90
2018-07-19T23:43:45.996Z,99.90
2018-07-19T23:46:19.956Z,99.90
2018-07-19T23:48:48.380Z,99.90
2018-07-19T23:51:16.743Z,99.90
2018-07-19T23:53:45.188Z,99.90
2018-07-19T23:56:13.733Z,99.90
2018-07-19T23:58:42.153Z,99.90
